createdAt,value
2019-01-21T00:00:38.939Z,30.48
2019-01-21T00:03:14.355Z,28.67
2019-01-21T00:05:42.670Z,28.95
2019-01-21T00:08:12.027Z,28.55
2019-01-21T00:10:41.684Z,28.42
2019-01-21T00:13:14.074Z,28.92
2019-01-21T00:15:45.924Z,27.50
2019-01-21T00:18:17.533Z,28.17
2019-01-21T00:20:48.063Z,27.02
2019-01-21T00:23:20.954Z,27.37
2019-01-21T00:25:53.779Z,25.75
2019-01-21T00:28:23.206Z,26.85
2019-01-21T00:30:52.862Z,27.22
2019-01-21T00:33:22.560Z,27.37
2019-01-21T00:35:55.340Z,26.57
2019-01-21T00:38:24.704Z,26.07
2019-01-21T00:40:54.287Z,27.60
2019-01-21T00:43:24.511Z,27.37
2019-01-21T00:45:54.823Z,28.20
2019-01-21T00:48:26.238Z,27.85
2019-01-21T00:50:57.526Z,27.67
2019-01-21T00:53:28.989Z,28.30
2019-01-21T00:55:59.482Z,28.32
2019-01-21T00:58:29.230Z,27.30
2019-01-21T01:01:02.349Z,28.00
2019-01-21T01:03:32.012Z,28.83
2019-01-21T01:06:01.752Z,28.35
2019-01-21T01:08:31.135Z,30.23
2019-01-21T01:11:01.108Z,28.20
2019-01-21T01:13:30.861Z,29.95
2019-01-21T01:16:01.983Z,30.52
2019-01-21T01:18:33.464Z,30.08
2019-01-21T01:21:04.886Z,29.15
2019-01-21T01:23:34.797Z,31.10
2019-01-21T01:26:04.131Z,29.95
2019-01-21T01:28:34.019Z,30.55
2019-01-21T01:31:03.452Z,29.98
2019-01-21T01:33:32.824Z,29.15
2019-01-21T01:36:14.070Z,29.70
2019-01-21T01:38:43.708Z,28.57
2019-01-21T01:41:13.463Z,27.10
2019-01-21T01:43:45.291Z,27.35
2019-01-21T01:46:15.025Z,27.58
2019-01-21T01:48:44.699Z,27.95
2019-01-21T01:51:15.010Z,26.42
2019-01-21T01:53:46.890Z,25.90
2019-01-21T01:56:16.307Z,26.05
2019-01-21T01:58:45.744Z,24.72
2019-01-21T02:01:15.336Z,25.75
2019-01-21T02:03:45.063Z,24.77
2019-01-21T02:06:15.260Z,25.23
2019-01-21T02:08:48.231Z,24.52
2019-01-21T02:11:17.848Z,25.77
2019-01-21T02:13:47.603Z,25.70
2019-01-21T02:16:16.975Z,24.80
2019-01-21T02:18:47.714Z,25.85
2019-01-21T02:21:17.217Z,26.33
2019-01-21T02:23:48.887Z,25.25
2019-01-21T02:26:20.644Z,26.80
2019-01-21T02:29:08.288Z,26.35
2019-01-21T02:32:09.979Z,27.40
2019-01-21T02:34:49.517Z,26.45
2019-01-21T02:37:32.738Z,27.62
2019-01-21T02:40:26.814Z,26.90
2019-01-21T02:43:20.337Z,26.42
2019-01-21T02:46:09.639Z,26.05
2019-01-21T02:48:55.968Z,26.75
2019-01-21T02:51:33.379Z,25.65
2019-01-21T02:54:27.061Z,26.17
2019-01-21T02:57:23.485Z,25.75
2019-01-21T03:00:19.832Z,25.32
2019-01-21T03:02:57.003Z,25.37
2019-01-21T03:05:37.043Z,25.75
2019-01-21T03:08:17.650Z,27.20
2019-01-21T03:11:01.646Z,26.77
2019-01-21T03:13:53.731Z,26.27
2019-01-21T03:16:58.567Z,25.48
2019-01-21T03:19:41.761Z,25.05
2019-01-21T03:22:31.180Z,24.63
2019-01-21T03:25:43.324Z,26.07
2019-01-21T03:28:29.636Z,25.48
2019-01-21T03:31:49.390Z,24.90
2019-01-21T03:34:32.565Z,24.95
2019-01-21T03:37:09.534Z,24.87
2019-01-21T03:40:01.405Z,26.23
2019-01-21T03:43:12.251Z,26.37
2019-01-21T03:46:01.507Z,25.27
2019-01-21T03:48:35.638Z,26.93
2019-01-21T03:51:18.722Z,25.30
2019-01-21T03:53:55.914Z,26.23
2019-01-21T03:56:30.213Z,25.60
2019-01-21T03:59:12.821Z,24.18
2019-01-21T04:02:06.580Z,23.30
2019-01-21T04:05:01.811Z,24.57
2019-01-21T04:07:47.638Z,24.77
2019-01-21T04:10:37.185Z,23.77
2019-01-21T04:13:31.894Z,24.67
2019-01-21T04:16:14.811Z,23.55
2019-01-21T04:18:49.359Z,24.15
2019-01-21T04:21:31.966Z,24.95
2019-01-21T04:24:12.501Z,25.52
2019-01-21T04:26:53.044Z,24.47
2019-01-21T04:30:02.300Z,24.60
2019-01-21T04:32:42.055Z,24.95
2019-01-21T04:35:34.735Z,24.63
2019-01-21T04:38:31.473Z,25.57
2019-01-21T04:41:22.782Z,24.90
2019-01-21T04:44:02.706Z,25.12
2019-01-21T04:46:36.945Z,24.90
2019-01-21T04:49:34.239Z,23.92
2019-01-21T04:52:08.792Z,24.55
2019-01-21T04:55:16.302Z,26.02
2019-01-21T04:58:14.722Z,25.20
2019-01-21T05:00:48.951Z,26.75
2019-01-21T05:03:37.434Z,25.88
2019-01-21T05:06:44.796Z,28.90
2019-01-21T05:09:25.594Z,28.70
2019-01-21T05:12:17.596Z,27.00
2019-01-21T05:15:29.056Z,28.83
2019-01-21T05:18:49.487Z,29.82
2019-01-21T05:21:32.477Z,28.05
2019-01-21T05:24:21.712Z,29.07
2019-01-21T05:27:31.115Z,29.10
2019-01-21T05:30:23.482Z,28.55
2019-01-21T05:33:12.296Z,29.87
2019-01-21T05:36:05.575Z,57.95
2019-01-21T05:38:57.881Z,51.40
2019-01-21T05:42:09.687Z,38.73
2019-01-21T05:44:44.206Z,30.72
2019-01-21T05:47:42.012Z,28.15
2019-01-21T05:50:28.095Z,30.68
2019-01-21T05:53:33.936Z,30.20
2019-01-21T05:56:13.681Z,45.12
2019-01-21T05:59:10.073Z,34.33
2019-01-21T06:02:06.654Z,32.67
2019-01-21T06:04:46.706Z,29.77
2019-01-21T06:07:52.086Z,28.85
2019-01-21T06:10:32.175Z,30.10
2019-01-21T06:13:12.540Z,29.57
2019-01-21T06:16:10.329Z,30.40
2019-01-21T06:19:03.886Z,32.65
2019-01-21T06:21:46.658Z,32.23
2019-01-21T06:24:36.144Z,31.42
2019-01-21T06:27:22.026Z,33.35
2019-01-21T06:29:59.348Z,32.93
2019-01-21T06:33:09.365Z,32.17
2019-01-21T06:35:55.049Z,31.62
2019-01-21T06:38:32.118Z,33.38
2019-01-21T06:41:27.285Z,31.62
2019-01-21T06:44:07.353Z,31.82
2019-01-21T06:47:00.735Z,32.65
2019-01-21T06:49:46.761Z,32.33
2019-01-21T06:52:32.601Z,31.15
2019-01-21T06:55:40.098Z,30.08
2019-01-21T06:58:47.337Z,28.73
2019-01-21T07:01:44.829Z,27.20
2019-01-21T07:04:33.872Z,27.10
2019-01-21T07:07:28.762Z,27.30
2019-01-21T07:10:18.344Z,25.50
2019-01-21T07:13:10.877Z,23.95
2019-01-21T07:16:02.105Z,24.98
2019-01-21T07:18:39.085Z,23.70
2019-01-21T07:21:28.218Z,26.48
2019-01-21T07:24:21.890Z,24.37
2019-01-21T07:27:01.490Z,25.62
2019-01-21T07:29:53.997Z,26.05
2019-01-21T07:32:45.600Z,27.42
2019-01-21T07:35:28.900Z,26.05
2019-01-21T07:38:18.003Z,25.50
2019-01-21T07:41:07.043Z,26.62
2019-01-21T07:44:07.834Z,27.55
2019-01-21T07:46:53.612Z,26.02
2019-01-21T07:49:50.512Z,27.73
2019-01-21T07:52:42.583Z,28.07
2019-01-21T07:55:53.186Z,29.25
2019-01-21T07:59:03.682Z,27.75
2019-01-21T08:01:56.485Z,26.52
2019-01-21T08:04:49.157Z,28.65
2019-01-21T08:07:37.844Z,26.65
2019-01-21T08:10:44.921Z,27.75
2019-01-21T08:13:30.817Z,28.40
2019-01-21T08:16:07.963Z,27.52
2019-01-21T08:18:50.956Z,27.50
2019-01-21T08:21:50.191Z,26.65
2019-01-21T08:24:36.724Z,27.60
2019-01-21T08:27:25.919Z,27.20
2019-01-21T08:30:19.996Z,27.50
2019-01-21T08:33:21.658Z,28.95
2019-01-21T08:36:10.545Z,28.20
2019-01-21T08:38:53.825Z,28.30
2019-01-21T08:41:28.141Z,27.98
2019-01-21T08:44:10.924Z,29.55
2019-01-21T08:47:02.904Z,29.02
2019-01-21T08:49:59.598Z,29.90
2019-01-21T08:52:45.195Z,32.45
2019-01-21T08:55:55.338Z,33.88
2019-01-21T08:58:38.742Z,33.73
2019-01-21T09:01:44.382Z,32.50
2019-01-21T09:04:49.757Z,33.18
2019-01-21T09:07:56.151Z,33.13
2019-01-21T09:10:47.870Z,32.93
2019-01-21T09:13:40.673Z,34.27
2019-01-21T09:16:44.833Z,32.80
2019-01-21T09:19:42.847Z,33.90
2019-01-21T09:22:17.130Z,32.42
2019-01-21T09:25:06.411Z,34.43
2019-01-21T09:27:40.975Z,32.60
2019-01-21T09:30:34.559Z,34.08
2019-01-21T09:33:38.086Z,34.50
2019-01-21T09:36:39.226Z,36.00
2019-01-21T09:39:36.641Z,34.70
2019-01-21T09:42:16.872Z,35.45
2019-01-21T09:44:59.767Z,36.70
2019-01-21T09:47:27.743Z,38.55
2019-01-21T09:49:57.405Z,40.05
2019-01-21T09:52:27.043Z,40.28
2019-01-21T09:54:56.410Z,37.33
2019-01-21T09:57:26.169Z,39.48
2019-01-21T09:59:55.569Z,39.53
2019-01-21T10:02:32.537Z,38.60
2019-01-21T10:05:02.825Z,36.55
2019-01-21T10:07:36.007Z,37.03
2019-01-21T10:10:28.638Z,38.05
2019-01-21T10:13:30.922Z,38.00
2019-01-21T10:16:16.735Z,38.48
2019-01-21T10:19:12.003Z,36.53
2019-01-21T10:22:17.295Z,36.30
2019-01-21T10:25:12.199Z,39.18
2019-01-21T10:28:16.578Z,38.73
2019-01-21T10:30:54.186Z,39.08
2019-01-21T10:33:47.437Z,37.85
2019-01-21T10:36:39.223Z,36.75
2019-01-21T10:39:49.433Z,35.43
2019-01-21T10:42:32.402Z,37.55
2019-01-21T10:45:31.907Z,35.03
2019-01-21T10:48:15.214Z,37.85
2019-01-21T10:51:07.258Z,36.28
2019-01-21T10:54:00.931Z,35.17
2019-01-21T10:56:43.409Z,34.92
2019-01-21T10:59:23.665Z,34.23
2019-01-21T11:02:31.093Z,36.17
2019-01-21T11:05:07.940Z,32.07
2019-01-21T11:07:56.793Z,32.73
2019-01-21T11:10:39.930Z,32.87
2019-01-21T11:13:44.319Z,31.77
2019-01-21T11:16:39.228Z,31.47
2019-01-21T11:19:28.384Z,29.67
2019-01-21T11:22:02.589Z,30.53
2019-01-21T11:24:52.012Z,29.97
2019-01-21T11:27:28.887Z,30.70
2019-01-21T11:30:03.350Z,29.30
2019-01-21T11:32:59.153Z,31.30
2019-01-21T11:35:45.294Z,29.97
2019-01-21T11:38:55.376Z,31.17
2019-01-21T11:41:30.010Z,30.30
2019-01-21T11:44:15.854Z,30.43
2019-01-21T11:47:08.753Z,30.13
2019-01-21T11:49:51.396Z,31.33
2019-01-21T11:52:25.888Z,30.37
2019-01-21T11:55:00.175Z,31.03
2019-01-21T11:57:55.926Z,31.57
2019-01-21T12:01:03.254Z,30.60
2019-01-21T12:04:03.277Z,30.17
2019-01-21T12:06:40.728Z,31.00
2019-01-21T12:09:26.436Z,31.07
2019-01-21T12:12:03.694Z,32.90
2019-01-21T12:15:12.493Z,31.07
2019-01-21T12:17:56.197Z,32.27
2019-01-21T12:20:38.978Z,30.93
2019-01-21T12:23:40.002Z,31.63
2019-01-21T12:26:22.903Z,32.00
2019-01-21T12:29:19.443Z,31.97
2019-01-21T12:32:14.777Z,30.17
2019-01-21T12:34:58.102Z,31.33
2019-01-21T12:37:38.173Z,31.63
2019-01-21T12:40:18.551Z,30.30
2019-01-21T12:43:07.396Z,31.37
2019-01-21T12:45:59.468Z,32.23
2019-01-21T12:48:39.371Z,31.23
2019-01-21T12:51:28.395Z,31.80
2019-01-21T12:54:14.537Z,31.30
2019-01-21T12:57:05.020Z,30.90
2019-01-21T12:59:56.843Z,32.33
2019-01-21T13:02:33.846Z,31.60
2019-01-21T13:05:22.442Z,33.93
2019-01-21T13:08:14.911Z,33.23
2019-01-21T13:11:09.743Z,33.07
2019-01-21T13:14:01.791Z,32.37
2019-01-21T13:16:50.698Z,32.13
2019-01-21T13:20:00.837Z,31.30
2019-01-21T13:22:51.590Z,31.87
2019-01-21T13:25:42.317Z,29.40
2019-01-21T13:28:31.177Z,30.30
2019-01-21T13:31:17.092Z,30.50
2019-01-21T13:34:13.816Z,32.13
2019-01-21T13:37:12.503Z,30.87
2019-01-21T13:40:13.584Z,31.70
2019-01-21T13:42:53.354Z,33.13
2019-01-21T13:45:43.778Z,34.37
2019-01-21T13:48:20.872Z,34.63
2019-01-21T13:51:16.056Z,33.37
2019-01-21T13:53:55.992Z,33.50
2019-01-21T13:56:38.993Z,32.40
2019-01-21T13:59:25.290Z,32.30
2019-01-21T14:02:02.449Z,32.47
2019-01-21T14:05:03.329Z,32.43
2019-01-21T14:08:01.221Z,34.07
2019-01-21T14:10:44.622Z,34.27
2019-01-21T14:13:42.673Z,33.90
2019-01-21T14:16:46.902Z,34.00
2019-01-21T14:19:26.110Z,33.43
2019-01-21T14:22:08.496Z,32.57
2019-01-21T14:25:14.378Z,34.00
2019-01-21T14:28:10.718Z,32.20
2019-01-21T14:31:10.047Z,32.77
2019-01-21T14:33:50.014Z,34.47
2019-01-21T14:36:29.468Z,33.90
2019-01-21T14:39:20.989Z,31.70
2019-01-21T14:42:00.893Z,33.57
2019-01-21T14:45:03.398Z,34.17
2019-01-21T14:47:54.385Z,33.83
2019-01-21T14:50:40.552Z,34.50
2019-01-21T14:53:20.045Z,36.10
2019-01-21T14:56:10.924Z,33.83
2019-01-21T14:58:45.430Z,33.90
2019-01-21T15:01:55.422Z,33.87
2019-01-21T15:04:35.140Z,33.97
2019-01-21T15:07:15.147Z,36.63
2019-01-21T15:09:49.457Z,99.73
2019-01-21T15:12:29.490Z,71.30
2019-01-21T15:15:24.218Z,37.60
2019-01-21T15:18:33.030Z,35.23
2019-01-21T15:21:12.643Z,35.70
2019-01-21T15:24:03.368Z,35.13
2019-01-21T15:26:52.675Z,37.37
2019-01-21T15:29:41.852Z,36.57
2019-01-21T15:32:37.148Z,37.87
2019-01-21T15:35:31.723Z,37.77
2019-01-21T15:38:29.189Z,37.30
2019-01-21T15:41:09.197Z,36.47
2019-01-21T15:43:46.199Z,39.50
2019-01-21T15:46:47.582Z,40.10
2019-01-21T15:49:27.617Z,38.13
2019-01-21T15:52:19.686Z,38.30
2019-01-21T15:55:11.823Z,41.07
2019-01-21T15:57:49.031Z,38.13
2019-01-21T16:00:25.889Z,41.63
2019-01-21T16:03:23.853Z,37.60
2019-01-21T16:06:10.169Z,38.23
2019-01-21T16:08:47.510Z,39.50
2019-01-21T16:11:47.092Z,40.13
2019-01-21T16:14:17.699Z,40.13
2019-01-21T16:17:03.772Z,40.00
2019-01-21T16:19:34.070Z,38.33
2019-01-21T16:22:20.180Z,40.77
2019-01-21T16:25:03.553Z,40.60
2019-01-21T16:28:14.066Z,39.87
2019-01-21T16:31:00.486Z,39.30
2019-01-21T16:34:17.501Z,40.57
2019-01-21T16:37:07.484Z,40.00
2019-01-21T16:39:57.639Z,40.67
2019-01-21T16:42:27.540Z,40.87
2019-01-21T16:44:58.675Z,41.37
2019-01-21T16:47:28.273Z,43.47
2019-01-21T16:49:57.628Z,41.13
2019-01-21T16:52:27.369Z,41.03
2019-01-21T16:54:56.751Z,42.03
2019-01-21T16:57:26.062Z,42.40
2019-01-21T16:59:55.666Z,42.43
2019-01-21T17:02:25.256Z,42.70
2019-01-21T17:04:54.695Z,41.90
2019-01-21T17:07:24.420Z,43.73
2019-01-21T17:09:53.999Z,43.37
2019-01-21T17:12:23.607Z,42.37
2019-01-21T17:14:57.364Z,44.73
2019-01-21T17:17:30.212Z,44.27
2019-01-21T17:19:59.815Z,43.17
2019-01-21T17:22:29.203Z,42.50
2019-01-21T17:24:58.575Z,43.50
2019-01-21T17:27:28.215Z,44.50
2019-01-21T17:29:57.543Z,43.00
2019-01-21T17:32:27.052Z,46.07
2019-01-21T17:34:56.857Z,46.50
2019-01-21T17:37:26.229Z,44.27
2019-01-21T17:39:55.632Z,45.07
2019-01-21T17:42:25.342Z,45.80
2019-01-21T17:44:54.960Z,43.97
2019-01-21T17:47:24.337Z,43.53
2019-01-21T17:49:54.710Z,45.37
2019-01-21T17:52:27.361Z,44.30
2019-01-21T17:54:56.722Z,45.63
2019-01-21T17:57:26.387Z,44.50
2019-01-21T17:59:56.027Z,47.80
2019-01-21T18:02:25.705Z,44.53
2019-01-21T18:04:55.331Z,46.17
2019-01-21T18:07:24.727Z,46.40
2019-01-21T18:09:54.068Z,47.37
2019-01-21T18:12:24.084Z,47.03
2019-01-21T18:14:54.615Z,47.27
2019-01-21T18:17:26.003Z,49.00
2019-01-21T18:19:55.647Z,48.30
2019-01-21T18:22:30.089Z,49.03
2019-01-21T18:25:00.818Z,48.63
2019-01-21T18:27:31.521Z,47.08
2019-01-21T18:30:02.023Z,47.20
2019-01-21T18:32:31.542Z,47.17
2019-01-21T18:35:01.353Z,46.43
2019-01-21T18:37:30.998Z,48.03
2019-01-21T18:40:00.631Z,46.77
2019-01-21T18:42:29.981Z,45.48
2019-01-21T18:44:59.950Z,47.58
2019-01-21T18:47:29.623Z,47.50
2019-01-21T18:50:00.048Z,48.68
2019-01-21T18:52:31.217Z,46.90
2019-01-21T18:55:03.158Z,48.08
2019-01-21T18:57:34.020Z,47.93
2019-01-21T19:00:04.347Z,46.60
2019-01-21T19:02:33.978Z,48.13
2019-01-21T19:05:03.773Z,45.35
2019-01-21T19:07:33.105Z,45.65
2019-01-21T19:10:02.761Z,45.12
2019-01-21T19:12:32.396Z,43.80
2019-01-21T19:15:02.149Z,46.18
2019-01-21T19:17:31.825Z,43.60
2019-01-21T19:20:01.500Z,41.80
2019-01-21T19:22:30.873Z,42.62
2019-01-21T19:25:00.268Z,41.53
2019-01-21T19:27:29.876Z,43.08
2019-01-21T19:29:59.519Z,41.40
2019-01-21T19:32:29.250Z,40.80
2019-01-21T19:34:58.911Z,42.10
2019-01-21T19:37:28.249Z,40.95
2019-01-21T19:39:57.625Z,42.53
2019-01-21T19:42:27.055Z,43.08
2019-01-21T19:44:56.673Z,40.03
2019-01-21T19:47:26.364Z,40.85
2019-01-21T19:49:55.994Z,42.78
2019-01-21T19:52:25.696Z,41.60
2019-01-21T19:54:55.080Z,40.43
2019-01-21T19:57:24.423Z,42.03
2019-01-21T19:59:54.064Z,42.15
2019-01-21T20:02:23.728Z,41.15
2019-01-21T20:04:53.120Z,41.80
2019-01-21T20:07:22.628Z,40.88
2019-01-21T20:09:52.298Z,43.08
2019-01-21T20:12:21.674Z,41.70
2019-01-21T20:14:51.113Z,41.92
2019-01-21T20:17:20.807Z,42.62
2019-01-21T20:19:50.187Z,42.38
2019-01-21T20:22:22.754Z,41.28
2019-01-21T20:24:52.289Z,41.75
2019-01-21T20:27:21.619Z,40.65
2019-01-21T20:29:51.228Z,44.00
2019-01-21T20:32:20.974Z,42.00
2019-01-21T20:34:50.356Z,42.90
2019-01-21T20:37:20.012Z,42.33
2019-01-21T20:39:49.341Z,40.98
2019-01-21T20:42:18.923Z,42.05
2019-01-21T20:44:48.737Z,43.08
2019-01-21T20:47:18.093Z,41.73
2019-01-21T20:49:47.792Z,42.20
2019-01-21T20:52:17.268Z,42.88
2019-01-21T20:54:46.638Z,41.98
2019-01-21T20:57:15.971Z,40.35
2019-01-21T20:59:45.625Z,41.40
2019-01-21T21:02:15.260Z,41.80
2019-01-21T21:04:44.998Z,40.60
2019-01-21T21:07:14.638Z,42.20
2019-01-21T21:09:44.259Z,40.75
2019-01-21T21:12:13.878Z,41.53
2019-01-21T21:14:43.285Z,41.30
2019-01-21T21:17:12.756Z,42.10
2019-01-21T21:19:42.619Z,39.35
2019-01-21T21:22:12.115Z,38.50
2019-01-21T21:24:42.079Z,39.58
2019-01-21T21:27:11.577Z,39.10
2019-01-21T21:29:41.363Z,38.28
2019-01-21T21:32:11.058Z,41.50
2019-01-21T21:34:40.776Z,39.10
2019-01-21T21:37:10.392Z,39.65
2019-01-21T21:39:39.742Z,39.78
2019-01-21T21:42:09.756Z,40.12
2019-01-21T21:44:39.107Z,40.35
2019-01-21T21:47:08.496Z,41.35
2019-01-21T21:49:37.869Z,39.53
2019-01-21T21:52:07.680Z,39.67
2019-01-21T21:54:37.103Z,39.40
2019-01-21T21:57:07.083Z,39.83
2019-01-21T21:59:36.666Z,40.15
2019-01-21T22:02:06.002Z,40.52
2019-01-21T22:04:35.346Z,39.08
2019-01-21T22:07:04.679Z,40.48
2019-01-21T22:09:34.024Z,39.63
2019-01-21T22:12:03.632Z,40.48
2019-01-21T22:14:34.009Z,40.03
2019-01-21T22:17:03.675Z,39.63
2019-01-21T22:19:33.368Z,37.75
2019-01-21T22:22:02.974Z,39.30
2019-01-21T22:24:32.402Z,40.08
2019-01-21T22:27:02.064Z,38.65
2019-01-21T22:29:31.646Z,40.05
2019-01-21T22:32:00.998Z,43.30
2019-01-21T22:34:30.655Z,39.00
2019-01-21T22:37:00.418Z,38.85
2019-01-21T22:39:30.033Z,39.78
2019-01-21T22:41:59.674Z,40.67
2019-01-21T22:44:29.064Z,39.75
2019-01-21T22:46:58.717Z,39.65
2019-01-21T22:49:28.403Z,40.95
2019-01-21T22:51:58.029Z,41.18
2019-01-21T22:54:27.692Z,39.30
2019-01-21T22:56:57.334Z,39.90
2019-01-21T22:59:26.707Z,40.20
2019-01-21T23:01:56.138Z,40.92
2019-01-21T23:04:25.769Z,41.18
2019-01-21T23:06:55.119Z,41.58
2019-01-21T23:09:24.729Z,41.33
2019-01-21T23:11:54.067Z,39.20
2019-01-21T23:14:23.450Z,39.55
2019-01-21T23:16:53.139Z,38.83
2019-01-21T23:19:22.489Z,38.48
2019-01-21T23:21:52.122Z,37.28
2019-01-21T23:24:21.468Z,39.88
2019-01-21T23:26:50.824Z,36.53
2019-01-21T23:29:20.154Z,39.83
2019-01-21T23:31:49.498Z,39.83
2019-01-21T23:34:19.120Z,38.53
2019-01-21T23:36:48.915Z,37.50
2019-01-21T23:39:18.315Z,38.98
2019-01-21T23:41:47.729Z,38.58
2019-01-21T23:44:17.318Z,39.63
2019-01-21T23:46:46.941Z,37.20
2019-01-21T23:49:16.833Z,40.12
2019-01-21T23:51:46.436Z,37.28
2019-01-21T23:54:16.072Z,36.93
2019-01-21T23:56:45.777Z,39.00
2019-01-21T23:59:15.399Z,38.50
